Aviation Digital Data Service (ADDS)

Output produced by METARs form (0557 UTC 29 May 2017)
found at http://www.aviationweather.gov/adds/metars/
 
VCBI 290510Z 24009KT 9000 FEW016 SCT018 FEW020CB 29/25 Q1009 NOSIG RMK SW
TAF VCBI 290340Z 2906/3012 23015G25KT 8000 -SHRA BKN016 TX29/2907Z TN25/2923Z 
     TEMPO 2908/2918 2920/3006 5000 -TSRA/SHRA SCT010 BKN014 FEW020CB